Time,TemperatureF,DewpointF,PressureIn,WindDirection,WindDirectionDegrees,WindSpeedMPH,WindSpeedGustMPH,Humidity,HourlyPrecipIn,Conditions,Clouds,dailyrainin,SoftwareType,DateUTC
2013-06-28 00:02:00,70.1,66.1,29.49,North,356,0.0,0.0,87,0.00,,FEW120,0.00,VWS V14.01,2013-06-28 04:02:00,
2013-06-28 00:07:00,70.4,66.3,29.49,North,356,0.0,0.0,87,0.00,,FEW120,0.00,VWS V14.01,2013-06-28 04:07:00,
2013-06-28 00:13:00,69.9,65.5,29.49,North,356,0.0,0.0,86,0.00,,FEW120,0.00,VWS V14.01,2013-06-28 04:13:00,
2013-06-28 00:22:00,69.4,65.4,29.49,North,356,0.0,2.0,87,0.00,,FEW120,0.00,VWS V14.01,2013-06-28 04:22:00,
2013-06-28 00:27:00,69.3,65.3,29.49,North,356,0.0,0.0,87,0.00,,FEW120,0.00,VWS V14.01,2013-06-28 04:27:00,
2013-06-28 00:32:00,69.3,65.3,29.48,North,356,0.0,1.0,87,0.00,,FEW120,0.00,VWS V14.01,2013-06-28 04:32:00,
2013-06-28 00:37:00,69.3,65.3,29.48,WSW,247,0.0,0.0,87,0.00,,FEW120,0.00,VWS V14.01,2013-06-28 04:37:00,
2013-06-28 00:42:00,69.3,64.9,29.48,WSW,240,0.0,0.0,86,0.00,,FEW090,0.00,VWS V14.01,2013-06-28 04:42:00,
2013-06-28 00:52:00,69.3,64.9,29.48,WSW,240,0.0,0.0,86,0.00,,FEW090,0.00,VWS V14.01,2013-06-28 04:52:00,
2013-06-28 01:02:00,69.1,64.7,29.49,WSW,240,0.0,0.0,86,0.00,,FEW090,0.00,VWS V14.01,2013-06-28 05:02:00,
2013-06-28 01:12:00,68.9,64.2,29.49,WSW,240,0.0,0.0,85,0.00,,FEW090,0.00,VWS V14.01,2013-06-28 05:12:00,
2013-06-28 01:22:00,68.9,64.2,29.48,WSW,237,0.0,0.0,85,0.00,,FEW090,0.00,VWS V14.01,2013-06-28 05:22:00,
2013-06-28 01:27:00,68.9,64.2,29.48,WSW,237,0.0,0.0,85,0.00,,FEW090,0.00,VWS V14.01,2013-06-28 05:27:00,
2013-06-28 01:32:00,68.9,64.2,29.48,WSW,237,1.0,1.0,85,0.00,,FEW090,0.00,VWS V14.01,2013-06-28 05:32:00,
2013-06-28 01:37:00,68.8,64.1,29.48,WSW,237,2.0,2.0,85,0.00,,FEW090,0.00,VWS V14.01,2013-06-28 05:37:00,
2013-06-28 01:42:00,68.6,63.9,29.48,WSW,237,0.0,2.0,85,0.00,,FEW110,0.00,VWS V14.01,2013-06-28 05:42:00,
2013-06-28 01:52:00,68.4,64.1,29.48,WSW,237,0.0,1.0,86,0.00,,FEW110,0.00,VWS V14.01,2013-06-28 05:52:00,
2013-06-28 02:02:00,68.3,64.0,29.49,WSW,237,0.0,1.0,86,0.00,,FEW110,0.00,VWS V14.01,2013-06-28 06:02:00,
2013-06-28 02:07:00,68.3,64.0,29.49,WSW,237,0.0,0.0,86,0.00,,FEW110,0.00,VWS V14.01,2013-06-28 06:07:00,
2013-06-28 02:17:00,68.1,64.1,29.49,WSW,237,0.0,1.0,87,0.00,,FEW110,0.00,VWS V14.01,2013-06-28 06:17:00,
2013-06-28 02:22:00,68.1,64.1,29.49,WSW,237,0.0,0.0,87,0.00,,FEW110,0.00,VWS V14.01,2013-06-28 06:22:00,
2013-06-28 02:27:00,68.1,64.1,29.49,WSW,237,0.0,0.0,87,0.00,,FEW110,0.00,VWS V14.01,2013-06-28 06:27:00,
2013-06-28 02:32:00,67.9,63.9,29.49,WSW,237,0.0,1.0,87,0.00,,FEW110,0.00,VWS V14.01,2013-06-28 06:32:00,
2013-06-28 02:37:00,67.9,63.9,29.49,WSW,237,0.0,0.0,87,0.00,,FEW110,0.00,VWS V14.01,2013-06-28 06:37:00,
2013-06-28 02:42:00,67.9,63.9,29.49,WSW,237,0.0,1.0,87,0.00,,CLR,0.00,VWS V14.01,2013-06-28 06:42:00,
2013-06-28 02:47:00,67.9,64.2,29.48,WSW,237,0.0,0.0,88,0.00,,CLR,0.00,VWS V14.01,2013-06-28 06:47:00,
2013-06-28 02:52:00,67.8,64.1,29.48,WSW,237,0.0,1.0,88,0.00,,CLR,0.00,VWS V14.01,2013-06-28 06:52:00,
2013-06-28 02:57:00,67.8,64.1,29.48,WSW,237,0.0,1.0,88,0.00,,CLR,0.00,VWS V14.01,2013-06-28 06:57:00,
2013-06-28 03:02:00,67.8,64.1,29.48,WSW,237,0.0,0.0,88,0.00,,CLR,0.00,VWS V14.01,2013-06-28 07:02:00,
2013-06-28 03:07:00,67.6,63.9,29.48,WSW,237,0.0,2.0,88,0.00,,CLR,0.00,VWS V14.01,2013-06-28 07:07:00,
2013-06-28 03:12:00,67.8,64.1,29.48,WSW,237,0.0,1.0,88,0.00,,CLR,0.00,VWS V14.01,2013-06-28 07:12:00,
2013-06-28 03:17:00,67.6,63.9,29.48,WSW,237,0.0,1.0,88,0.00,,CLR,0.00,VWS V14.01,2013-06-28 07:17:00,
2013-06-28 03:22:00,67.6,63.9,29.48,WSW,237,0.0,1.0,88,0.00,,CLR,0.00,VWS V14.01,2013-06-28 07:22:00,
2013-06-28 03:32:00,67.6,63.9,29.47,WSW,237,0.0,0.0,88,0.00,,CLR,0.00,VWS V14.01,2013-06-28 07:32:00,
2013-06-28 03:37:00,67.6,63.9,29.47,WSW,237,0.0,0.0,88,0.00,,CLR,0.00,VWS V14.01,2013-06-28 07:37:00,
2013-06-28 03:42:00,67.6,63.9,29.47,WSW,237,0.0,0.0,88,0.00,,CLR,0.00,VWS V14.01,2013-06-28 07:42:00,
2013-06-28 03:47:00,67.6,63.9,29.46,WSW,237,0.0,0.0,88,0.00,,CLR,0.00,VWS V14.01,2013-06-28 07:47:00,
2013-06-28 03:52:00,67.4,63.7,29.46,WSW,237,0.0,0.0,88,0.00,,CLR,0.00,VWS V14.01,2013-06-28 07:52:00,
2013-06-28 03:57:00,67.3,63.6,29.46,WSW,237,0.0,1.0,88,0.00,,CLR,0.00,VWS V14.01,2013-06-28 07:57:00,
2013-06-28 04:02:00,67.3,63.6,29.46,WSW,237,0.0,1.0,88,0.00,,CLR,0.00,VWS V14.01,2013-06-28 08:02:00,
2013-06-28 04:12:00,67.3,64.0,29.46,WSW,237,0.0,0.0,89,0.00,,CLR,0.00,VWS V14.01,2013-06-28 08:12:00,
2013-06-28 04:17:00,67.1,63.8,29.46,WSW,237,0.0,0.0,89,0.00,,CLR,0.00,VWS V14.01,2013-06-28 08:17:00,
2013-06-28 04:22:00,67.1,63.8,29.46,WSW,237,0.0,0.0,89,0.00,,CLR,0.00,VWS V14.01,2013-06-28 08:22:00,
2013-06-28 04:27:00,67.1,63.8,29.46,WSW,237,0.0,0.0,89,0.00,,CLR,0.00,VWS V14.01,2013-06-28 08:27:00,
2013-06-28 04:37:00,67.1,63.8,29.46,WSW,237,0.0,0.0,89,0.00,,CLR,0.00,VWS V14.01,2013-06-28 08:37:00,
2013-06-28 04:42:00,67.1,64.1,29.46,WSW,237,0.0,0.0,90,0.00,,CLR,0.00,VWS V14.01,2013-06-28 08:42:00,
2013-06-28 04:47:00,67.3,64.3,29.46,WSW,237,0.0,0.0,90,0.00,,CLR,0.00,VWS V14.01,2013-06-28 08:47:00,
2013-06-28 04:52:00,67.4,64.1,29.46,WSW,237,0.0,0.0,89,0.00,,CLR,0.00,VWS V14.01,2013-06-28 08:52:00,
2013-06-28 05:02:00,67.3,64.0,29.46,WSW,237,0.0,0.0,89,0.00,,CLR,0.00,VWS V14.01,2013-06-28 09:02:00,
2013-06-28 05:07:00,67.1,63.8,29.46,WSW,237,0.0,0.0,89,0.00,,CLR,0.00,VWS V14.01,2013-06-28 09:07:00,
2013-06-28 05:17:00,66.9,63.6,29.46,WSW,237,0.0,0.0,89,0.00,,CLR,0.00,VWS V14.01,2013-06-28 09:17:00,
2013-06-28 05:22:00,66.8,63.5,29.46,WSW,237,0.0,0.0,89,0.00,,CLR,0.00,VWS V14.01,2013-06-28 09:22:00,
2013-06-28 05:27:00,66.8,63.5,29.46,WSW,237,0.0,0.0,89,0.00,,CLR,0.00,VWS V14.01,2013-06-28 09:27:00,
2013-06-28 05:32:00,66.8,63.5,29.46,WSW,237,0.0,0.0,89,0.00,,CLR,0.00,VWS V14.01,2013-06-28 09:32:00,
2013-06-28 05:37:00,66.8,63.5,29.46,WSW,237,0.0,0.0,89,0.00,,CLR,0.00,VWS V14.01,2013-06-28 09:37:00,
2013-06-28 05:42:00,66.6,63.3,29.46,WSW,237,0.0,0.0,89,0.00,,CLR,0.00,VWS V14.01,2013-06-28 09:42:00,
2013-06-28 05:47:00,66.6,63.3,29.46,WSW,237,0.0,0.0,89,0.00,,CLR,0.00,VWS V14.01,2013-06-28 09:47:00,
2013-06-28 05:52:00,66.6,62.9,29.46,WSW,237,0.0,0.0,88,0.00,,CLR,0.00,VWS V14.01,2013-06-28 09:52:00,
2013-06-28 06:02:00,66.4,62.7,29.46,WSW,237,0.0,0.0,88,0.00,,CLR,0.00,VWS V14.01,2013-06-28 10:02:00,
2013-06-28 06:07:00,66.3,62.6,29.46,WSW,237,0.0,0.0,88,0.00,,CLR,0.00,VWS V14.01,2013-06-28 10:07:00,
2013-06-28 06:17:00,66.1,62.5,29.46,WSW,237,0.0,0.0,88,0.00,,CLR,0.00,VWS V14.01,2013-06-28 10:17:00,
2013-06-28 06:22:00,66.1,62.5,29.46,WSW,237,0.0,0.0,88,0.00,,CLR,0.00,VWS V14.01,2013-06-28 10:22:00,
2013-06-28 06:27:00,66.1,62.5,29.46,WSW,237,0.0,0.0,88,0.00,,CLR,0.00,VWS V14.01,2013-06-28 10:27:00,
2013-06-28 06:32:00,66.1,62.5,29.46,WSW,237,0.0,0.0,88,0.00,,CLR,0.00,VWS V14.01,2013-06-28 10:32:00,
2013-06-28 06:37:00,66.1,62.5,29.46,WSW,237,0.0,0.0,88,0.00,,CLR,0.00,VWS V14.01,2013-06-28 10:37:00,
2013-06-28 06:42:00,66.1,62.5,29.46,WSW,237,0.0,0.0,88,0.00,,CLR,0.00,VWS V14.01,2013-06-28 10:42:00,
2013-06-28 06:47:00,66.1,62.1,29.46,WSW,237,0.0,0.0,87,0.00,,CLR,0.00,VWS V14.01,2013-06-28 10:47:00,
2013-06-28 06:57:00,66.3,62.3,29.46,WSW,237,1.0,5.0,87,0.00,,CLR,0.00,VWS V14.01,2013-06-28 10:57:00,
2013-06-28 07:02:00,66.4,62.4,29.46,WSW,237,0.0,7.0,87,0.00,,CLR,0.00,VWS V14.01,2013-06-28 11:02:00,
2013-06-28 07:12:00,66.8,62.5,29.46,WSW,237,0.0,0.0,86,0.00,,CLR,0.00,VWS V14.01,2013-06-28 11:12:00,
2013-06-28 07:17:00,66.8,62.2,29.47,WSW,237,0.0,0.0,85,0.00,,CLR,0.00,VWS V14.01,2013-06-28 11:17:00,
2013-06-28 07:22:00,66.8,62.2,29.47,WSW,243,0.0,0.0,85,0.00,,CLR,0.00,VWS V14.01,2013-06-28 11:22:00,
2013-06-28 07:27:00,66.8,62.2,29.47,WSW,251,0.0,0.0,85,0.00,,CLR,0.00,VWS V14.01,2013-06-28 11:27:00,
2013-06-28 07:37:00,66.6,62.0,29.47,WSW,251,0.0,0.0,85,0.00,,CLR,0.00,VWS V14.01,2013-06-28 11:37:00,
2013-06-28 07:47:00,66.8,62.5,29.46,WSW,251,0.0,3.0,86,0.00,,,0.00,VWS V14.01,2013-06-28 11:47:00,
2013-06-28 07:52:00,67.1,62.5,29.46,WSW,251,0.0,0.0,85,0.00,,,0.00,VWS V14.01,2013-06-28 11:52:00,
2013-06-28 07:57:00,67.3,62.6,29.46,WSW,251,0.0,0.0,85,0.00,,,0.00,VWS V14.01,2013-06-28 11:57:00,
2013-06-28 08:02:00,67.4,62.4,29.46,WSW,251,0.0,7.0,84,0.00,,,0.00,VWS V14.01,2013-06-28 12:02:00,
2013-06-28 08:12:00,68.1,62.8,29.46,WSW,257,6.0,6.0,83,0.00,,,0.00,VWS V14.01,2013-06-28 12:12:00,
2013-06-28 08:17:00,68.3,62.9,29.46,WSW,258,0.0,7.0,83,0.00,,,0.00,VWS V14.01,2013-06-28 12:17:00,
2013-06-28 08:22:00,68.6,62.9,29.46,WSW,258,0.0,0.0,82,0.00,,,0.00,VWS V14.01,2013-06-28 12:22:00,
2013-06-28 08:27:00,68.8,63.1,29.46,WNW,288,0.0,0.0,82,0.00,,,0.00,VWS V14.01,2013-06-28 12:27:00,
2013-06-28 08:37:00,69.4,63.3,29.47,WNW,295,0.0,1.0,81,0.00,,,0.00,VWS V14.01,2013-06-28 12:37:00,
2013-06-28 08:42:00,69.8,63.7,29.47,WNW,287,0.0,0.0,81,0.00,,,0.00,VWS V14.01,2013-06-28 12:42:00,
2013-06-28 08:47:00,69.9,63.5,29.46,West,281,0.0,0.0,80,0.00,,,0.00,VWS V14.01,2013-06-28 12:47:00,
2013-06-28 08:57:00,70.3,63.5,29.46,West,271,0.0,0.0,79,0.00,,,0.00,VWS V14.01,2013-06-28 12:57:00,
2013-06-28 09:02:00,70.4,63.2,29.47,West,278,0.0,3.0,78,0.00,,,0.00,VWS V14.01,2013-06-28 13:02:00,
2013-06-28 09:07:00,70.8,63.6,29.47,West,280,0.0,0.0,78,0.00,,,0.00,VWS V14.01,2013-06-28 13:07:00,
2013-06-28 09:12:00,70.9,63.0,29.47,West,261,0.0,0.0,76,0.00,,,0.00,VWS V14.01,2013-06-28 13:12:00,
2013-06-28 09:17:00,71.3,63.0,29.46,West,281,0.0,0.0,75,0.00,,,0.00,VWS V14.01,2013-06-28 13:17:00,
2013-06-28 09:22:00,71.5,63.2,29.46,WNW,299,0.0,0.0,75,0.00,,,0.00,VWS V14.01,2013-06-28 13:22:00,
2013-06-28 09:27:00,71.6,62.9,29.46,WNW,288,0.0,0.0,74,0.00,,,0.00,VWS V14.01,2013-06-28 13:27:00,
2013-06-28 09:37:00,72.3,62.8,29.46,NNW,336,0.0,0.0,72,0.00,,,0.00,VWS V14.01,2013-06-28 13:37:00,
2013-06-28 09:42:00,72.7,62.8,29.46,NW,305,0.0,0.0,71,0.00,,FEW095,0.00,VWS V14.01,2013-06-28 13:42:00,
2013-06-28 09:47:00,72.7,62.8,29.46,WNW,298,0.0,0.0,71,0.00,,FEW095,0.00,VWS V14.01,2013-06-28 13:47:00,
2013-06-28 09:52:00,73.0,62.7,29.46,NW,309,0.0,0.0,70,0.00,,FEW095,0.00,VWS V14.01,2013-06-28 13:52:00,
2013-06-28 09:57:00,73.0,61.8,29.46,WNW,295,0.0,0.0,68,0.00,,FEW095,0.00,VWS V14.01,2013-06-28 13:57:00,
2013-06-28 10:02:00,73.2,62.4,29.46,West,280,0.0,0.0,69,0.00,,FEW095,0.00,VWS V14.01,2013-06-28 14:02:00,
2013-06-28 10:07:00,73.5,62.7,29.46,NW,311,0.0,0.0,69,0.00,,FEW095,0.00,VWS V14.01,2013-06-28 14:07:00,
2013-06-28 10:12:00,73.9,61.8,29.46,North,11,0.0,0.0,66,0.00,,FEW095,0.00,VWS V14.01,2013-06-28 14:12:00,
2013-06-28 10:17:00,74.2,62.1,29.46,NW,323,0.0,0.0,66,0.00,,FEW095,0.00,VWS V14.01,2013-06-28 14:17:00,
2013-06-28 10:22:00,74.2,61.7,29.46,NNW,330,0.0,0.0,65,0.00,,FEW095,0.00,VWS V14.01,2013-06-28 14:22:00,
2013-06-28 10:27:00,74.2,60.4,29.46,NNW,340,0.0,0.0,62,0.00,,FEW095,0.00,VWS V14.01,2013-06-28 14:27:00,
2013-06-28 10:32:00,74.4,61.0,29.46,NNW,336,0.0,0.0,63,0.00,,FEW095,0.00,VWS V14.01,2013-06-28 14:32:00,
2013-06-28 10:42:00,74.9,61.0,29.46,WNW,291,0.0,0.0,62,0.00,,CLR,0.00,VWS V14.01,2013-06-28 14:42:00,
2013-06-28 10:47:00,74.9,61.9,29.46,West,277,0.0,0.0,64,0.00,,CLR,0.00,VWS V14.01,2013-06-28 14:47:00,
2013-06-28 10:52:00,74.9,61.0,29.46,NW,322,0.0,0.0,62,0.00,,CLR,0.00,VWS V14.01,2013-06-28 14:52:00,
2013-06-28 10:57:00,74.9,60.6,29.46,West,263,0.0,0.0,61,0.00,,CLR,0.00,VWS V14.01,2013-06-28 14:57:00,
2013-06-28 11:02:00,75.1,61.2,29.46,NNW,342,0.0,0.0,62,0.00,,CLR,0.00,VWS V14.01,2013-06-28 15:02:00,
2013-06-28 11:12:00,75.8,62.3,29.46,North,0,0.0,0.0,63,0.00,,CLR,0.00,VWS V14.01,2013-06-28 15:12:00,
2013-06-28 11:17:00,75.4,61.0,29.45,NW,318,0.0,0.0,61,0.00,,CLR,0.00,VWS V14.01,2013-06-28 15:17:00,
2013-06-28 11:22:00,75.8,61.9,29.45,NW,322,0.0,0.0,62,0.00,,CLR,0.00,VWS V14.01,2013-06-28 15:22:00,
2013-06-28 11:32:00,76.5,62.5,29.46,WNW,294,0.0,0.0,62,0.00,,CLR,0.00,VWS V14.01,2013-06-28 15:32:00,
2013-06-28 11:42:00,76.3,61.4,29.46,NNW,339,0.0,0.0,60,0.00,,CLR,0.00,VWS V14.01,2013-06-28 15:42:00,
2013-06-28 11:47:00,76.3,61.4,29.46,WNW,294,0.0,0.0,60,0.00,,CLR,0.00,VWS V14.01,2013-06-28 15:47:00,
2013-06-28 11:57:00,76.8,62.3,29.46,NNW,344,0.0,0.0,61,0.00,,CLR,0.00,VWS V14.01,2013-06-28 15:57:00,
2013-06-28 12:02:00,77.0,62.5,29.45,WNW,301,0.0,0.0,61,0.00,,CLR,0.00,VWS V14.01,2013-06-28 16:02:00,
2013-06-28 12:12:00,77.2,61.8,29.45,NNW,335,0.0,0.0,59,0.00,,CLR,0.00,VWS V14.01,2013-06-28 16:12:00,
2013-06-28 12:17:00,77.4,61.5,29.45,NNW,328,0.0,0.0,58,0.00,,CLR,0.00,VWS V14.01,2013-06-28 16:17:00,
2013-06-28 12:22:00,77.4,62.4,29.45,NNW,332,0.0,0.0,60,0.00,,CLR,0.00,VWS V14.01,2013-06-28 16:22:00,
2013-06-28 12:27:00,77.7,63.7,29.45,NW,318,0.0,0.0,62,0.00,,CLR,0.00,VWS V14.01,2013-06-28 16:27:00,
2013-06-28 12:32:00,77.9,61.0,29.45,WSW,248,0.0,0.0,56,0.00,,CLR,0.00,VWS V14.01,2013-06-28 16:32:00,
2013-06-28 12:37:00,77.6,61.7,29.45,WNW,289,0.0,0.0,58,0.00,,CLR,0.00,VWS V14.01,2013-06-28 16:37:00,
2013-06-28 12:42:00,77.0,61.1,29.45,West,268,0.0,0.0,58,0.00,,CLR,0.00,VWS V14.01,2013-06-28 16:42:00,
2013-06-28 12:47:00,76.8,61.4,29.45,NW,305,0.0,0.0,59,0.00,,CLR,0.00,VWS V14.01,2013-06-28 16:47:00,
2013-06-28 12:52:00,77.4,62.4,29.45,NW,320,0.0,0.0,60,0.00,,CLR,0.00,VWS V14.01,2013-06-28 16:52:00,
2013-06-28 13:02:00,78.3,59.8,29.45,NW,308,0.0,0.0,53,0.00,,CLR,0.00,VWS V14.01,2013-06-28 17:02:00,
2013-06-28 13:07:00,78.1,58.0,29.45,NNW,329,0.0,0.0,50,0.00,,CLR,0.00,VWS V14.01,2013-06-28 17:07:00,
2013-06-28 13:17:00,78.3,58.2,29.44,NNW,328,0.0,0.0,50,0.00,,CLR,0.00,VWS V14.01,2013-06-28 17:17:00,
2013-06-28 13:22:00,78.6,59.5,29.44,NW,306,0.0,0.0,52,0.00,,CLR,0.00,VWS V14.01,2013-06-28 17:22:00,
2013-06-28 13:32:00,78.5,60.5,29.44,NW,320,0.0,0.0,54,0.00,,CLR,0.00,VWS V14.01,2013-06-28 17:32:00,
2013-06-28 13:42:00,77.9,59.9,29.44,North,353,0.0,0.0,54,0.00,,BKN110,0.00,VWS V14.01,2013-06-28 17:42:00,
2013-06-28 13:47:00,78.1,59.6,29.44,NW,325,0.0,0.0,53,0.00,,BKN110,0.00,VWS V14.01,2013-06-28 17:47:00,
2013-06-28 13:57:00,77.9,56.7,29.44,WNW,291,0.0,0.0,48,0.00,,BKN110,0.00,VWS V14.01,2013-06-28 17:57:00,
2013-06-28 14:02:00,78.1,58.0,29.44,West,271,0.0,0.0,50,0.00,,BKN110,0.00,VWS V14.01,2013-06-28 18:02:00,
2013-06-28 14:12:00,77.9,58.3,29.44,NNW,343,0.0,0.0,51,0.00,,BKN110,0.00,VWS V14.01,2013-06-28 18:12:00,
2013-06-28 14:17:00,78.3,60.8,29.43,NNW,344,0.0,0.0,55,0.00,,BKN110,0.00,VWS V14.01,2013-06-28 18:17:00,
2013-06-28 14:22:00,78.1,58.5,29.43,NW,305,0.0,0.0,51,0.00,,BKN110,0.00,VWS V14.01,2013-06-28 18:22:00,
2013-06-28 14:32:00,78.3,58.7,29.42,WNW,295,0.0,0.0,51,0.00,,BKN110,0.00,VWS V14.01,2013-06-28 18:32:00,
2013-06-28 14:37:00,78.5,60.0,29.42,NNW,329,0.0,0.0,53,0.00,,BKN110,0.00,VWS V14.01,2013-06-28 18:37:00,
2013-06-28 14:42:00,78.3,59.2,29.42,NNW,335,0.0,0.0,52,0.00,,SCT110,0.00,VWS V14.01,2013-06-28 18:42:00,
2013-06-28 14:47:00,78.3,59.2,29.42,NW,315,0.0,0.0,52,0.00,,SCT110,0.00,VWS V14.01,2013-06-28 18:47:00,
2013-06-28 14:52:00,78.3,57.0,29.42,WNW,285,0.0,0.0,48,0.00,,SCT110,0.00,VWS V14.01,2013-06-28 18:52:00,
2013-06-28 15:02:00,78.6,57.3,29.42,NNW,347,0.0,0.0,48,0.00,,SCT110,0.00,VWS V14.01,2013-06-28 19:02:00,
2013-06-28 15:07:00,78.6,59.0,29.42,NW,319,0.0,0.0,51,0.00,,SCT110,0.00,VWS V14.01,2013-06-28 19:07:00,
2013-06-28 15:12:00,78.5,58.3,29.42,NNW,346,0.0,0.0,50,0.00,,SCT110,0.00,VWS V14.01,2013-06-28 19:12:00,
2013-06-28 15:17:00,77.9,58.3,29.42,NW,323,0.0,0.0,51,0.00,,SCT110,0.00,VWS V14.01,2013-06-28 19:17:00,
2013-06-28 15:22:00,77.7,57.6,29.42,West,268,0.0,0.0,50,0.00,,SCT110,0.00,VWS V14.01,2013-06-28 19:22:00,
2013-06-28 15:32:00,77.7,58.7,29.42,NW,320,0.0,0.0,52,0.00,,SCT110,0.00,VWS V14.01,2013-06-28 19:32:00,
2013-06-28 15:42:00,78.8,59.7,29.42,NW,311,0.0,0.0,52,0.00,,CLR,0.00,VWS V14.01,2013-06-28 19:42:00,
2013-06-28 15:47:00,78.8,58.0,29.41,West,261,0.0,0.0,49,0.00,,CLR,0.00,VWS V14.01,2013-06-28 19:47:00,
2013-06-28 15:52:00,79.2,57.2,29.41,NW,316,0.0,0.0,47,0.00,,CLR,0.00,VWS V14.01,2013-06-28 19:52:00,
2013-06-28 15:57:00,79.6,59.3,29.41,WSW,257,0.0,0.0,50,0.00,,CLR,0.00,VWS V14.01,2013-06-28 19:57:00,
2013-06-28 16:02:00,79.4,58.0,29.42,West,275,0.0,0.0,48,0.00,,CLR,0.00,VWS V14.01,2013-06-28 20:02:00,
2013-06-28 16:12:00,80.1,59.2,29.42,West,280,0.0,0.0,49,0.00,,CLR,0.00,VWS V14.01,2013-06-28 20:12:00,
2013-06-28 16:17:00,79.0,54.0,29.42,West,263,0.0,0.0,42,0.00,,CLR,0.00,VWS V14.01,2013-06-28 20:17:00,
2013-06-28 16:22:00,78.6,54.9,29.42,West,267,0.0,0.0,44,0.00,,CLR,0.00,VWS V14.01,2013-06-28 20:22:00,
2013-06-28 16:27:00,77.7,54.7,29.42,WSW,244,0.0,0.0,45,0.00,,CLR,0.00,VWS V14.01,2013-06-28 20:27:00,
2013-06-28 16:32:00,77.9,54.3,29.41,West,272,0.0,0.0,44,0.00,,CLR,0.00,VWS V14.01,2013-06-28 20:32:00,
2013-06-28 16:42:00,77.2,54.8,29.41,West,271,0.0,0.0,46,0.00,,CLR,0.00,VWS V14.01,2013-06-28 20:42:00,
2013-06-28 16:47:00,76.3,56.3,29.40,West,268,0.0,0.0,50,0.00,,CLR,0.00,VWS V14.01,2013-06-28 20:47:00,
2013-06-28 16:52:00,76.1,57.8,29.40,NNW,347,0.0,0.0,53,0.00,,CLR,0.00,VWS V14.01,2013-06-28 20:52:00,
2013-06-28 17:02:00,77.0,58.6,29.40,West,271,0.0,0.0,53,0.00,,CLR,0.00,VWS V14.01,2013-06-28 21:02:00,
2013-06-28 17:12:00,77.0,56.4,29.40,West,277,0.0,0.0,49,0.00,,CLR,0.00,VWS V14.01,2013-06-28 21:12:00,
2013-06-28 17:17:00,77.6,57.5,29.40,West,272,0.0,0.0,50,0.00,,CLR,0.00,VWS V14.01,2013-06-28 21:17:00,
2013-06-28 17:22:00,77.6,55.8,29.40,WNW,302,0.0,0.0,47,0.00,,CLR,0.00,VWS V14.01,2013-06-28 21:22:00,
2013-06-28 17:27:00,77.9,56.7,29.40,WNW,299,0.0,0.0,48,0.00,,CLR,0.00,VWS V14.01,2013-06-28 21:27:00,
2013-06-28 17:32:00,78.3,56.4,29.40,NNW,332,0.0,0.0,47,0.00,,CLR,0.00,VWS V14.01,2013-06-28 21:32:00,
2013-06-28 17:42:00,78.5,56.6,29.40,WNW,289,0.0,0.0,47,0.00,,CLR,0.00,VWS V14.01,2013-06-28 21:42:00,
2013-06-28 17:47:00,78.5,56.6,29.40,NW,313,0.0,0.0,47,0.00,,CLR,0.00,VWS V14.01,2013-06-28 21:47:00,
2013-06-28 17:57:00,78.8,58.6,29.40,NW,313,0.0,0.0,50,0.00,,CLR,0.00,VWS V14.01,2013-06-28 21:57:00,
2013-06-28 18:02:00,78.6,56.7,29.39,NNW,333,0.0,0.0,47,0.00,,CLR,0.00,VWS V14.01,2013-06-28 22:02:00,
2013-06-28 18:07:00,78.6,57.3,29.39,WNW,294,0.0,0.0,48,0.00,,CLR,0.00,VWS V14.01,2013-06-28 22:07:00,
2013-06-28 18:12:00,78.6,57.9,29.39,NW,320,0.0,0.0,49,0.00,,CLR,0.00,VWS V14.01,2013-06-28 22:12:00,
2013-06-28 18:22:00,78.6,57.9,29.40,NW,326,0.0,0.0,49,0.00,,CLR,0.00,VWS V14.01,2013-06-28 22:22:00,
2013-06-28 18:27:00,78.8,58.6,29.40,WNW,298,0.0,0.0,50,0.00,,CLR,0.00,VWS V14.01,2013-06-28 22:27:00,
2013-06-28 18:32:00,78.3,58.7,29.39,WNW,285,0.0,0.0,51,0.00,,CLR,0.00,VWS V14.01,2013-06-28 22:32:00,
2013-06-28 18:37:00,77.6,58.1,29.39,WNW,298,0.0,0.0,51,0.00,,CLR,0.00,VWS V14.01,2013-06-28 22:37:00,
2013-06-28 18:42:00,77.2,58.2,29.39,WNW,302,0.0,0.0,52,0.00,,CLR,0.00,VWS V14.01,2013-06-28 22:42:00,
2013-06-28 18:47:00,76.8,58.9,29.42,NNW,328,0.0,0.0,54,0.00,,CLR,0.00,VWS V14.01,2013-06-28 22:47:00,
2013-06-28 18:52:00,70.4,57.7,29.42,WSW,257,0.0,1.0,64,0.00,,CLR,0.00,VWS V14.01,2013-06-28 22:52:00,
2013-06-28 18:57:00,67.4,57.7,29.42,West,265,0.0,0.0,71,0.00,,CLR,0.00,VWS V14.01,2013-06-28 22:57:00,
2013-06-28 19:02:00,65.5,57.7,29.44,West,270,0.0,0.0,76,0.01,,CLR,0.01,VWS V14.01,2013-06-28 23:02:00,
2013-06-28 19:12:00,63.9,58.0,29.44,West,268,0.0,0.0,81,0.02,,CLR,0.02,VWS V14.01,2013-06-28 23:12:00,
2013-06-28 19:17:00,63.7,57.8,29.44,West,265,0.0,0.0,81,0.02,,CLR,0.02,VWS V14.01,2013-06-28 23:17:00,
2013-06-28 19:22:00,63.9,57.6,29.44,WSW,240,0.0,0.0,80,0.02,,CLR,0.02,VWS V14.01,2013-06-28 23:22:00,
2013-06-28 19:27:00,64.2,57.9,29.44,NW,309,0.0,0.0,80,0.02,,CLR,0.02,VWS V14.01,2013-06-28 23:27:00,
2013-06-28 19:32:00,64.2,58.3,29.44,WNW,287,0.0,0.0,81,0.03,,CLR,0.03,VWS V14.01,2013-06-28 23:32:00,
2013-06-28 19:37:00,64.2,58.6,29.44,NNW,332,0.0,0.0,82,0.04,,CLR,0.04,VWS V14.01,2013-06-28 23:37:00,
2013-06-28 19:42:00,64.8,58.5,29.44,NW,325,0.0,0.0,80,0.04,,FEW100,0.04,VWS V14.01,2013-06-28 23:42:00,
2013-06-28 19:47:00,65.2,58.5,29.44,NNW,328,0.0,0.0,79,0.05,,FEW100,0.05,VWS V14.01,2013-06-28 23:47:00,
2013-06-28 19:52:00,65.2,58.9,29.44,NNW,328,0.0,0.0,80,0.05,,FEW100,0.05,VWS V14.01,2013-06-28 23:52:00,
2013-06-28 19:57:00,65.5,59.2,29.44,NNW,328,0.0,0.0,80,0.05,,FEW100,0.05,VWS V14.01,2013-06-28 23:57:00,
2013-06-28 20:07:00,66.0,59.7,29.43,NNW,330,0.0,0.0,80,0.04,,FEW100,0.05,VWS V14.01,2013-06-29 00:07:00,
2013-06-28 20:12:00,66.4,60.7,29.43,NW,312,0.0,0.0,82,0.03,,FEW100,0.05,VWS V14.01,2013-06-29 00:12:00,
2013-06-28 20:22:00,66.4,61.4,29.42,SW,226,0.0,0.0,84,0.03,,FEW100,0.05,VWS V14.01,2013-06-29 00:22:00,
2013-06-28 20:27:00,66.3,61.3,29.42,SW,226,0.0,0.0,84,0.03,,FEW100,0.05,VWS V14.01,2013-06-29 00:27:00,
2013-06-28 20:32:00,66.1,60.8,29.42,SW,226,0.0,0.0,83,0.03,,FEW100,0.05,VWS V14.01,2013-06-29 00:32:00,
2013-06-28 20:37:00,66.1,60.8,29.42,SW,226,0.0,0.0,83,0.02,,FEW100,0.05,VWS V14.01,2013-06-29 00:37:00,
2013-06-28 20:47:00,66.4,61.4,29.42,SW,226,0.0,0.0,84,0.01,,BKN110,0.05,VWS V14.01,2013-06-29 00:47:00,
2013-06-28 20:52:00,66.4,60.7,29.42,SW,226,0.0,0.0,82,0.00,,BKN110,0.05,VWS V14.01,2013-06-29 00:52:00,
2013-06-28 20:57:00,66.4,60.7,29.42,SW,226,0.0,0.0,82,0.00,,BKN110,0.05,VWS V14.01,2013-06-29 00:57:00,
2013-06-28 21:02:00,66.3,60.0,29.42,SW,236,0.0,0.0,80,0.00,,BKN110,0.05,VWS V14.01,2013-06-29 01:02:00,
2013-06-28 21:12:00,66.3,60.3,29.42,SW,236,0.0,0.0,81,0.00,,BKN110,0.05,VWS V14.01,2013-06-29 01:12:00,
2013-06-28 21:17:00,66.1,60.5,29.41,SW,236,0.0,0.0,82,0.00,,BKN110,0.05,VWS V14.01,2013-06-29 01:17:00,
2013-06-28 21:22:00,66.0,60.7,29.41,SW,236,0.0,0.0,83,0.00,,BKN110,0.05,VWS V14.01,2013-06-29 01:22:00,
2013-06-28 21:27:00,66.0,60.7,29.41,SW,236,0.0,0.0,83,0.00,,BKN110,0.05,VWS V14.01,2013-06-29 01:27:00,
2013-06-28 21:32:00,66.0,60.7,29.41,SW,236,0.0,0.0,83,0.00,,BKN110,0.05,VWS V14.01,2013-06-29 01:32:00,
2013-06-28 21:37:00,65.8,60.5,29.41,SW,236,0.0,0.0,83,0.00,,BKN110,0.05,VWS V14.01,2013-06-29 01:37:00,
2013-06-28 21:47:00,65.8,60.8,29.42,SW,236,0.0,0.0,84,0.00,,BKN110,0.05,VWS V14.01,2013-06-29 01:47:00,
2013-06-28 21:52:00,65.8,61.2,29.42,SW,229,0.0,0.0,85,0.00,,BKN110,0.05,VWS V14.01,2013-06-29 01:52:00,
2013-06-28 21:57:00,65.6,61.0,29.42,SW,234,0.0,0.0,85,0.00,,BKN110,0.05,VWS V14.01,2013-06-29 01:57:00,
2013-06-28 22:02:00,65.8,61.2,29.42,SW,234,0.0,0.0,85,0.00,,BKN110,0.05,VWS V14.01,2013-06-29 02:02:00,
2013-06-28 22:12:00,65.8,61.2,29.42,WSW,247,0.0,0.0,85,0.00,,BKN110,0.05,VWS V14.01,2013-06-29 02:12:00,
2013-06-28 22:22:00,65.8,61.5,29.42,WSW,247,0.0,0.0,86,0.00,,BKN110,0.05,VWS V14.01,2013-06-29 02:22:00,
2013-06-28 22:27:00,65.6,61.3,29.42,WSW,247,0.0,0.0,86,0.00,,BKN110,0.05,VWS V14.01,2013-06-29 02:27:00,
2013-06-28 22:37:00,65.6,61.6,29.42,WSW,247,0.0,0.0,87,0.00,,BKN110,0.05,VWS V14.01,2013-06-29 02:37:00,
2013-06-28 22:42:00,65.6,61.6,29.42,WSW,247,0.0,0.0,87,0.00,,CLR,0.05,VWS V14.01,2013-06-29 02:42:00,
2013-06-28 22:47:00,65.6,61.6,29.42,WSW,247,0.0,0.0,87,0.00,,CLR,0.05,VWS V14.01,2013-06-29 02:47:00,
2013-06-28 22:52:00,65.5,61.5,29.42,WSW,250,0.0,0.0,87,0.00,,CLR,0.05,VWS V14.01,2013-06-29 02:52:00,
2013-06-28 22:57:00,65.5,61.5,29.42,WSW,250,0.0,0.0,87,0.00,,CLR,0.05,VWS V14.01,2013-06-29 02:57:00,
2013-06-28 23:02:00,65.3,61.7,29.42,WSW,250,0.0,0.0,88,0.00,,CLR,0.05,VWS V14.01,2013-06-29 03:02:00,
2013-06-28 23:12:00,65.2,61.6,29.42,WSW,250,0.0,0.0,88,0.00,,CLR,0.05,VWS V14.01,2013-06-29 03:12:00,
2013-06-28 23:17:00,65.2,61.6,29.42,WSW,250,0.0,0.0,88,0.00,,CLR,0.05,VWS V14.01,2013-06-29 03:17:00,
2013-06-28 23:22:00,65.0,61.7,29.42,WSW,250,0.0,0.0,89,0.00,,CLR,0.05,VWS V14.01,2013-06-29 03:22:00,
2013-06-28 23:32:00,65.0,61.7,29.41,WSW,250,0.0,0.0,89,0.00,,CLR,0.05,VWS V14.01,2013-06-29 03:32:00,
2013-06-28 23:37:00,65.0,61.7,29.41,WSW,250,0.0,0.0,89,0.00,,CLR,0.05,VWS V14.01,2013-06-29 03:37:00,
2013-06-28 23:47:00,65.0,61.7,29.41,WSW,250,0.0,0.0,89,0.00,,CLR,0.05,VWS V14.01,2013-06-29 03:47:00,
2013-06-28 23:52:00,64.8,61.5,29.41,WSW,250,0.0,0.0,89,0.00,,CLR,0.05,VWS V14.01,2013-06-29 03:52:00,